sensor_id;sensor_type;location;lat;lon;timestamp;temperature;humidity
20380;DHT22;10349;48.666;8.948;2024-03-06T00:00:28;4.20;99.90
20380;DHT22;10349;48.666;8.948;2024-03-06T00:02:54;4.20;99.90
20380;DHT22;10349;48.666;8.948;2024-03-06T00:05:20;4.20;99.90
20380;DHT22;10349;48.666;8.948;2024-03-06T00:07:46;4.30;99.90
20380;DHT22;10349;48.666;8.948;2024-03-06T00:10:11;4.30;99.90
20380;DHT22;10349;48.666;8.948;2024-03-06T00:12:37;4.30;99.90
20380;DHT22;10349;48.666;8.948;2024-03-06T00:15:03;4.30;99.90
20380;DHT22;10349;48.666;8.948;2024-03-06T00:17:29;4.20;99.90
20380;DHT22;10349;48.666;8.948;2024-03-06T00:19:55;4.20;99.90
20380;DHT22;10349;48.666;8.948;2024-03-06T00:22:20;4.20;99.90
20380;DHT22;10349;48.666;8.948;2024-03-06T00:24:46;4.20;99.90
20380;DHT22;10349;48.666;8.948;2024-03-06T00:27:13;4.20;99.90
20380;DHT22;10349;48.666;8.948;2024-03-06T00:29:39;4.20;99.90
20380;DHT22;10349;48.666;8.948;2024-03-06T00:32:05;4.20;99.90
20380;DHT22;10349;48.666;8.948;2024-03-06T00:34:31;4.20;99.90
20380;DHT22;10349;48.666;8.948;2024-03-06T00:36:57;4.10;99.90
20380;DHT22;10349;48.666;8.948;2024-03-06T00:39:22;4.10;99.90
20380;DHT22;10349;48.666;8.948;2024-03-06T00:41:48;4.10;99.90
20380;DHT22;10349;48.666;8.948;2024-03-06T00:44:15;4.00;99.90
20380;DHT22;10349;48.666;8.948;2024-03-06T00:46:41;4.00;99.90
20380;DHT22;10349;48.666;8.948;2024-03-06T00:49:07;4.00;99.90
20380;DHT22;10349;48.666;8.948;2024-03-06T00:51:32;4.00;99.90
20380;DHT22;10349;48.666;8.948;2024-03-06T00:54:01;4.00;99.90
20380;DHT22;10349;48.666;8.948;2024-03-06T00:56:27;4.00;99.90
20380;DHT22;10349;48.666;8.948;2024-03-06T00:58:52;4.00;99.90
20380;DHT22;10349;48.666;8.948;2024-03-06T01:01:18;4.00;99.90
20380;DHT22;10349;48.666;8.948;2024-03-06T01:03:44;4.00;99.90
20380;DHT22;10349;48.666;8.948;2024-03-06T01:06:10;4.00;99.90
20380;DHT22;10349;48.666;8.948;2024-03-06T01:08:36;4.10;99.90
20380;DHT22;10349;48.666;8.948;2024-03-06T01:11:01;4.10;99.90
20380;DHT22;10349;48.666;8.948;2024-03-06T01:13:30;4.10;99.90
20380;DHT22;10349;48.666;8.948;2024-03-06T01:15:55;4.10;99.90
20380;DHT22;10349;48.666;8.948;2024-03-06T01:18:21;4.10;99.90
20380;DHT22;10349;48.666;8.948;2024-03-06T01:20:46;4.10;99.90
20380;DHT22;10349;48.666;8.948;2024-03-06T01:23:12;4.00;99.90
20380;DHT22;10349;48.666;8.948;2024-03-06T01:25:38;3.90;99.90
20380;DHT22;10349;48.666;8.948;2024-03-06T01:28:03;3.90;99.90
20380;DHT22;10349;48.666;8.948;2024-03-06T01:30:29;3.80;99.90
20380;DHT22;10349;48.666;8.948;2024-03-06T01:32:55;3.80;99.90
20380;DHT22;10349;48.666;8.948;2024-03-06T01:35:20;3.80;99.90
20380;DHT22;10349;48.666;8.948;2024-03-06T01:37:46;3.80;99.90
20380;DHT22;10349;48.666;8.948;2024-03-06T01:40:12;3.80;99.90
20380;DHT22;10349;48.666;8.948;2024-03-06T01:42:38;3.80;99.90
20380;DHT22;10349;48.666;8.948;2024-03-06T01:45:04;3.90;99.90
20380;DHT22;10349;48.666;8.948;2024-03-06T01:47:30;3.90;99.90
20380;DHT22;10349;48.666;8.948;2024-03-06T01:49:56;3.90;99.90
20380;DHT22;10349;48.666;8.948;2024-03-06T01:52:22;3.90;99.90
20380;DHT22;10349;48.666;8.948;2024-03-06T01:54:48;3.80;99.90
20380;DHT22;10349;48.666;8.948;2024-03-06T01:57:16;3.80;99.90
20380;DHT22;10349;48.666;8.948;2024-03-06T01:59:43;3.80;99.90
20380;DHT22;10349;48.666;8.948;2024-03-06T02:02:09;3.70;99.90
20380;DHT22;10349;48.666;8.948;2024-03-06T02:04:37;3.80;99.90
20380;DHT22;10349;48.666;8.948;2024-03-06T02:07:03;3.80;99.90
20380;DHT22;10349;48.666;8.948;2024-03-06T02:09:30;3.80;99.90
20380;DHT22;10349;48.666;8.948;2024-03-06T02:11:56;3.70;99.90
20380;DHT22;10349;48.666;8.948;2024-03-06T02:14:21;3.70;99.90
20380;DHT22;10349;48.666;8.948;2024-03-06T02:16:47;3.60;99.90
20380;DHT22;10349;48.666;8.948;2024-03-06T02:19:12;3.60;99.90
20380;DHT22;10349;48.666;8.948;2024-03-06T02:21:38;3.50;99.90
20380;DHT22;10349;48.666;8.948;2024-03-06T02:24:04;3.50;99.90
20380;DHT22;10349;48.666;8.948;2024-03-06T02:26:29;3.50;99.90
20380;DHT22;10349;48.666;8.948;2024-03-06T02:28:56;3.50;99.90
20380;DHT22;10349;48.666;8.948;2024-03-06T02:31:22;3.50;99.90
20380;DHT22;10349;48.666;8.948;2024-03-06T02:33:49;3.50;99.90
20380;DHT22;10349;48.666;8.948;2024-03-06T02:36:18;3.50;99.90
20380;DHT22;10349;48.666;8.948;2024-03-06T02:38:44;3.50;99.90
20380;DHT22;10349;48.666;8.948;2024-03-06T02:41:10;3.50;99.90
20380;DHT22;10349;48.666;8.948;2024-03-06T02:43:37;3.60;99.90
20380;DHT22;10349;48.666;8.948;2024-03-06T02:46:03;3.60;99.90
20380;DHT22;10349;48.666;8.948;2024-03-06T02:48:29;3.60;99.90
20380;DHT22;10349;48.666;8.948;2024-03-06T02:50:55;3.70;99.90
20380;DHT22;10349;48.666;8.948;2024-03-06T02:53:21;3.70;99.90
20380;DHT22;10349;48.666;8.948;2024-03-06T02:55:47;3.80;99.90
20380;DHT22;10349;48.666;8.948;2024-03-06T02:58:13;3.80;99.90
20380;DHT22;10349;48.666;8.948;2024-03-06T03:00:43;3.80;99.90
20380;DHT22;10349;48.666;8.948;2024-03-06T03:03:09;3.80;99.90
20380;DHT22;10349;48.666;8.948;2024-03-06T03:05:36;3.90;99.90
20380;DHT22;10349;48.666;8.948;2024-03-06T03:08:01;3.90;99.90
20380;DHT22;10349;48.666;8.948;2024-03-06T03:10:29;3.90;99.90
20380;DHT22;10349;48.666;8.948;2024-03-06T03:12:55;3.80;99.90
20380;DHT22;10349;48.666;8.948;2024-03-06T03:15:20;3.80;99.90
20380;DHT22;10349;48.666;8.948;2024-03-06T03:17:46;3.80;99.90
20380;DHT22;10349;48.666;8.948;2024-03-06T03:20:13;3.80;99.90
20380;DHT22;10349;48.666;8.948;2024-03-06T03:22:39;3.70;99.90
20380;DHT22;10349;48.666;8.948;2024-03-06T03:25:09;3.70;99.90
20380;DHT22;10349;48.666;8.948;2024-03-06T03:27:36;3.70;99.90
20380;DHT22;10349;48.666;8.948;2024-03-06T03:30:02;3.60;99.90
20380;DHT22;10349;48.666;8.948;2024-03-06T03:32:28;3.60;99.90
20380;DHT22;10349;48.666;8.948;2024-03-06T03:34:54;3.60;99.90
20380;DHT22;10349;48.666;8.948;2024-03-06T03:37:20;3.60;99.90
20380;DHT22;10349;48.666;8.948;2024-03-06T03:39:46;3.60;99.90
20380;DHT22;10349;48.666;8.948;2024-03-06T03:42:11;3.60;99.90
20380;DHT22;10349;48.666;8.948;2024-03-06T03:44:37;3.60;99.90
20380;DHT22;10349;48.666;8.948;2024-03-06T03:47:03;3.60;99.90
20380;DHT22;10349;48.666;8.948;2024-03-06T03:49:28;3.60;99.90
20380;DHT22;10349;48.666;8.948;2024-03-06T03:51:54;3.60;99.90
20380;DHT22;10349;48.666;8.948;2024-03-06T03:54:20;3.70;99.90
20380;DHT22;10349;48.666;8.948;2024-03-06T03:56:47;3.70;99.90
20380;DHT22;10349;48.666;8.948;2024-03-06T03:59:13;3.70;99.90
20380;DHT22;10349;48.666;8.948;2024-03-06T04:01:38;3.70;99.90
20380;DHT22;10349;48.666;8.948;2024-03-06T04:04:05;3.70;99.90
20380;DHT22;10349;48.666;8.948;2024-03-06T04:06:32;3.80;99.90
20380;DHT22;10349;48.666;8.948;2024-03-06T04:08:58;3.80;99.90
20380;DHT22;10349;48.666;8.948;2024-03-06T04:11:23;3.90;99.90
20380;DHT22;10349;48.666;8.948;2024-03-06T04:13:49;3.90;99.90
20380;DHT22;10349;48.666;8.948;2024-03-06T04:16:18;4.00;99.90
20380;DHT22;10349;48.666;8.948;2024-03-06T04:18:44;4.00;99.90
20380;DHT22;10349;48.666;8.948;2024-03-06T04:21:10;4.00;99.90
20380;DHT22;10349;48.666;8.948;2024-03-06T04:23:36;3.90;99.90
20380;DHT22;10349;48.666;8.948;2024-03-06T04:26:03;3.90;99.90
20380;DHT22;10349;48.666;8.948;2024-03-06T04:28:29;3.80;99.90
20380;DHT22;10349;48.666;8.948;2024-03-06T04:30:55;3.70;99.90
20380;DHT22;10349;48.666;8.948;2024-03-06T04:33:21;3.70;99.90
20380;DHT22;10349;48.666;8.948;2024-03-06T04:35:47;3.70;99.90
20380;DHT22;10349;48.666;8.948;2024-03-06T04:38:13;3.70;99.90
20380;DHT22;10349;48.666;8.948;2024-03-06T04:40:39;3.70;99.90
20380;DHT22;10349;48.666;8.948;2024-03-06T04:43:05;3.70;99.90
20380;DHT22;10349;48.666;8.948;2024-03-06T04:45:32;3.70;99.90
20380;DHT22;10349;48.666;8.948;2024-03-06T04:47:57;3.70;99.90
20380;DHT22;10349;48.666;8.948;2024-03-06T04:50:24;3.80;99.90
20380;DHT22;10349;48.666;8.948;2024-03-06T04:52:49;3.80;99.90
20380;DHT22;10349;48.666;8.948;2024-03-06T04:55:15;3.80;99.90
20380;DHT22;10349;48.666;8.948;2024-03-06T04:57:45;3.80;99.90
20380;DHT22;10349;48.666;8.948;2024-03-06T05:00:12;3.80;99.90
20380;DHT22;10349;48.666;8.948;2024-03-06T05:02:38;3.80;99.90
20380;DHT22;10349;48.666;8.948;2024-03-06T05:05:04;3.80;99.90
20380;DHT22;10349;48.666;8.948;2024-03-06T05:07:31;3.80;99.90
20380;DHT22;10349;48.666;8.948;2024-03-06T05:09:57;3.80;99.90
20380;DHT22;10349;48.666;8.948;2024-03-06T05:12:24;3.80;99.90
20380;DHT22;10349;48.666;8.948;2024-03-06T05:14:53;3.80;99.90
20380;DHT22;10349;48.666;8.948;2024-03-06T05:17:19;3.80;99.90
20380;DHT22;10349;48.666;8.948;2024-03-06T05:19:49;3.90;99.90
20380;DHT22;10349;48.666;8.948;2024-03-06T05:22:15;3.90;99.90
20380;DHT22;10349;48.666;8.948;2024-03-06T05:24:44;4.00;99.90
20380;DHT22;10349;48.666;8.948;2024-03-06T05:27:10;4.00;99.90
20380;DHT22;10349;48.666;8.948;2024-03-06T05:29:39;4.00;99.90
20380;DHT22;10349;48.666;8.948;2024-03-06T05:32:05;4.10;99.90
20380;DHT22;10349;48.666;8.948;2024-03-06T05:34:33;4.10;99.90
20380;DHT22;10349;48.666;8.948;2024-03-06T05:36:59;4.10;99.90
20380;DHT22;10349;48.666;8.948;2024-03-06T05:39:25;4.20;99.90
20380;DHT22;10349;48.666;8.948;2024-03-06T05:41:50;4.10;99.90
20380;DHT22;10349;48.666;8.948;2024-03-06T05:44:16;4.10;99.90
20380;DHT22;10349;48.666;8.948;2024-03-06T05:46:42;4.10;99.90
20380;DHT22;10349;48.666;8.948;2024-03-06T05:49:07;4.10;99.90
20380;DHT22;10349;48.666;8.948;2024-03-06T05:51:33;4.10;99.90
20380;DHT22;10349;48.666;8.948;2024-03-06T05:53:59;4.10;99.90
20380;DHT22;10349;48.666;8.948;2024-03-06T05:56:24;4.20;99.90
20380;DHT22;10349;48.666;8.948;2024-03-06T05:58:50;4.20;99.90
20380;DHT22;10349;48.666;8.948;2024-03-06T06:01:16;4.20;99.90
20380;DHT22;10349;48.666;8.948;2024-03-06T06:03:46;4.30;99.90
20380;DHT22;10349;48.666;8.948;2024-03-06T06:06:15;4.30;99.90
20380;DHT22;10349;48.666;8.948;2024-03-06T06:08:40;4.30;99.90
20380;DHT22;10349;48.666;8.948;2024-03-06T06:11:06;4.30;99.90
20380;DHT22;10349;48.666;8.948;2024-03-06T06:13:33;4.30;99.90
20380;DHT22;10349;48.666;8.948;2024-03-06T06:15:59;4.30;99.90
20380;DHT22;10349;48.666;8.948;2024-03-06T06:18:24;4.30;99.90
20380;DHT22;10349;48.666;8.948;2024-03-06T06:20:50;4.30;99.90
20380;DHT22;10349;48.666;8.948;2024-03-06T06:23:16;4.30;99.90
20380;DHT22;10349;48.666;8.948;2024-03-06T06:25:42;4.30;99.90
20380;DHT22;10349;48.666;8.948;2024-03-06T06:28:07;4.30;99.90
20380;DHT22;10349;48.666;8.948;2024-03-06T06:30:35;4.30;99.90
20380;DHT22;10349;48.666;8.948;2024-03-06T06:33:01;4.40;99.90
20380;DHT22;10349;48.666;8.948;2024-03-06T06:35:27;4.30;99.90
20380;DHT22;10349;48.666;8.948;2024-03-06T06:37:53;4.30;99.90
20380;DHT22;10349;48.666;8.948;2024-03-06T06:40:18;4.40;99.90
20380;DHT22;10349;48.666;8.948;2024-03-06T06:42:46;4.40;99.90
20380;DHT22;10349;48.666;8.948;2024-03-06T06:45:15;4.40;99.90
20380;DHT22;10349;48.666;8.948;2024-03-06T06:47:41;4.40;99.90
20380;DHT22;10349;48.666;8.948;2024-03-06T06:50:07;4.40;99.90
20380;DHT22;10349;48.666;8.948;2024-03-06T06:52:35;4.40;99.90
20380;DHT22;10349;48.666;8.948;2024-03-06T06:55:00;4.40;99.90
20380;DHT22;10349;48.666;8.948;2024-03-06T06:57:26;4.40;99.90
20380;DHT22;10349;48.666;8.948;2024-03-06T06:59:52;4.40;99.90
20380;DHT22;10349;48.666;8.948;2024-03-06T07:02:18;4.40;99.90
20380;DHT22;10349;48.666;8.948;2024-03-06T07:04:43;4.50;99.90
20380;DHT22;10349;48.666;8.948;2024-03-06T07:07:09;4.50;99.90
20380;DHT22;10349;48.666;8.948;2024-03-06T07:09:35;4.40;99.90
20380;DHT22;10349;48.666;8.948;2024-03-06T07:12:01;4.50;99.90
20380;DHT22;10349;48.666;8.948;2024-03-06T07:14:26;4.50;99.90
20380;DHT22;10349;48.666;8.948;2024-03-06T07:16:52;4.40;99.90
20380;DHT22;10349;48.666;8.948;2024-03-06T07:19:18;4.50;99.90
20380;DHT22;10349;48.666;8.948;2024-03-06T07:21:44;4.50;99.90
20380;DHT22;10349;48.666;8.948;2024-03-06T07:24:09;4.50;99.90
20380;DHT22;10349;48.666;8.948;2024-03-06T07:26:35;4.60;99.90
20380;DHT22;10349;48.666;8.948;2024-03-06T07:29:01;4.60;99.90
20380;DHT22;10349;48.666;8.948;2024-03-06T07:31:27;4.70;99.90
20380;DHT22;10349;48.666;8.948;2024-03-06T07:33:52;4.70;99.90
20380;DHT22;10349;48.666;8.948;2024-03-06T07:36:19;4.70;99.90
20380;DHT22;10349;48.666;8.948;2024-03-06T07:38:45;4.70;99.90
20380;DHT22;10349;48.666;8.948;2024-03-06T07:41:10;4.80;99.90
20380;DHT22;10349;48.666;8.948;2024-03-06T07:43:37;4.70;99.90
20380;DHT22;10349;48.666;8.948;2024-03-06T07:46:04;4.70;99.90
20380;DHT22;10349;48.666;8.948;2024-03-06T07:48:36;4.70;99.90
20380;DHT22;10349;48.666;8.948;2024-03-06T07:51:02;4.70;99.90
20380;DHT22;10349;48.666;8.948;2024-03-06T07:53:28;4.70;99.90
20380;DHT22;10349;48.666;8.948;2024-03-06T07:55:53;4.80;99.90
20380;DHT22;10349;48.666;8.948;2024-03-06T07:58:19;4.80;99.90
20380;DHT22;10349;48.666;8.948;2024-03-06T08:00:46;4.80;99.90
20380;DHT22;10349;48.666;8.948;2024-03-06T08:03:12;4.80;99.90
20380;DHT22;10349;48.666;8.948;2024-03-06T08:05:39;4.80;99.90
20380;DHT22;10349;48.666;8.948;2024-03-06T08:08:05;4.90;99.90
20380;DHT22;10349;48.666;8.948;2024-03-06T08:10:30;4.90;99.90
20380;DHT22;10349;48.666;8.948;2024-03-06T08:12:56;4.90;99.90
20380;DHT22;10349;48.666;8.948;2024-03-06T08:15:23;4.90;99.90
20380;DHT22;10349;48.666;8.948;2024-03-06T08:17:49;4.90;99.90
20380;DHT22;10349;48.666;8.948;2024-03-06T08:20:15;4.90;99.90
20380;DHT22;10349;48.666;8.948;2024-03-06T08:22:41;4.90;99.90
20380;DHT22;10349;48.666;8.948;2024-03-06T08:25:11;5.00;99.90
20380;DHT22;10349;48.666;8.948;2024-03-06T08:27:39;5.00;99.90
20380;DHT22;10349;48.666;8.948;2024-03-06T08:30:06;4.90;99.90
20380;DHT22;10349;48.666;8.948;2024-03-06T08:32:32;5.00;99.90
20380;DHT22;10349;48.666;8.948;2024-03-06T08:35:03;5.10;99.90
20380;DHT22;10349;48.666;8.948;2024-03-06T08:37:34;5.10;99.90
20380;DHT22;10349;48.666;8.948;2024-03-06T08:40:00;5.10;99.90
20380;DHT22;10349;48.666;8.948;2024-03-06T08:42:27;5.10;99.90
20380;DHT22;10349;48.666;8.948;2024-03-06T08:44:53;5.10;99.90
20380;DHT22;10349;48.666;8.948;2024-03-06T08:47:19;5.10;99.90
20380;DHT22;10349;48.666;8.948;2024-03-06T08:49:44;5.10;99.90
20380;DHT22;10349;48.666;8.948;2024-03-06T08:52:10;5.10;99.90
20380;DHT22;10349;48.666;8.948;2024-03-06T08:54:36;5.20;99.90
20380;DHT22;10349;48.666;8.948;2024-03-06T08:57:03;5.30;99.90
20380;DHT22;10349;48.666;8.948;2024-03-06T08:59:29;5.20;99.90
20380;DHT22;10349;48.666;8.948;2024-03-06T09:01:55;5.30;99.90
20380;DHT22;10349;48.666;8.948;2024-03-06T09:04:22;5.30;99.90
20380;DHT22;10349;48.666;8.948;2024-03-06T09:06:47;5.40;99.90
20380;DHT22;10349;48.666;8.948;2024-03-06T09:09:14;5.40;99.90
20380;DHT22;10349;48.666;8.948;2024-03-06T09:11:43;5.40;99.90
20380;DHT22;10349;48.666;8.948;2024-03-06T09:14:09;5.40;99.90
20380;DHT22;10349;48.666;8.948;2024-03-06T09:16:36;5.50;99.90
20380;DHT22;10349;48.666;8.948;2024-03-06T09:19:01;5.50;99.90
20380;DHT22;10349;48.666;8.948;2024-03-06T09:21:28;5.50;99.90
20380;DHT22;10349;48.666;8.948;2024-03-06T09:23:53;5.50;99.90
20380;DHT22;10349;48.666;8.948;2024-03-06T09:26:19;5.50;99.90
20380;DHT22;10349;48.666;8.948;2024-03-06T09:28:46;5.50;99.90
20380;DHT22;10349;48.666;8.948;2024-03-06T09:31:11;5.50;99.90
20380;DHT22;10349;48.666;8.948;2024-03-06T09:33:39;5.50;99.90
20380;DHT22;10349;48.666;8.948;2024-03-06T09:36:05;5.50;99.90
20380;DHT22;10349;48.666;8.948;2024-03-06T09:38:31;5.50;99.90
20380;DHT22;10349;48.666;8.948;2024-03-06T09:40:57;5.50;99.90
20380;DHT22;10349;48.666;8.948;2024-03-06T09:43:22;5.50;99.90
20380;DHT22;10349;48.666;8.948;2024-03-06T09:45:50;5.50;99.90
20380;DHT22;10349;48.666;8.948;2024-03-06T09:48:20;5.50;99.90
20380;DHT22;10349;48.666;8.948;2024-03-06T09:50:46;5.50;99.90
20380;DHT22;10349;48.666;8.948;2024-03-06T09:53:16;5.50;99.90
20380;DHT22;10349;48.666;8.948;2024-03-06T09:55:42;5.50;99.90
20380;DHT22;10349;48.666;8.948;2024-03-06T09:58:08;5.60;99.90
20380;DHT22;10349;48.666;8.948;2024-03-06T10:00:35;5.60;99.90
20380;DHT22;10349;48.666;8.948;2024-03-06T10:03:03;5.60;99.90
20380;DHT22;10349;48.666;8.948;2024-03-06T10:05:31;5.60;99.90
20380;DHT22;10349;48.666;8.948;2024-03-06T10:08:00;5.60;99.90
20380;DHT22;10349;48.666;8.948;2024-03-06T10:10:26;5.60;99.90
20380;DHT22;10349;48.666;8.948;2024-03-06T10:12:52;5.50;99.90
20380;DHT22;10349;48.666;8.948;2024-03-06T10:15:18;5.50;99.90
20380;DHT22;10349;48.666;8.948;2024-03-06T10:17:44;5.60;99.90
20380;DHT22;10349;48.666;8.948;2024-03-06T10:20:23;5.50;99.90
20380;DHT22;10349;48.666;8.948;2024-03-06T10:22:50;5.50;99.90
20380;DHT22;10349;48.666;8.948;2024-03-06T10:25:20;5.50;99.90
20380;DHT22;10349;48.666;8.948;2024-03-06T10:28:03;5.50;99.90
20380;DHT22;10349;48.666;8.948;2024-03-06T10:30:28;5.50;99.90
20380;DHT22;10349;48.666;8.948;2024-03-06T10:32:54;5.50;99.90
20380;DHT22;10349;48.666;8.948;2024-03-06T10:35:20;5.60;99.90
20380;DHT22;10349;48.666;8.948;2024-03-06T10:37:49;5.60;99.90
20380;DHT22;10349;48.666;8.948;2024-03-06T10:40:15;5.60;99.90
20380;DHT22;10349;48.666;8.948;2024-03-06T10:42:42;5.60;99.90
20380;DHT22;10349;48.666;8.948;2024-03-06T10:45:12;5.60;99.90
20380;DHT22;10349;48.666;8.948;2024-03-06T10:47:39;5.60;99.90
20380;DHT22;10349;48.666;8.948;2024-03-06T10:50:06;5.60;99.90
20380;DHT22;10349;48.666;8.948;2024-03-06T10:52:36;5.60;99.90
20380;DHT22;10349;48.666;8.948;2024-03-06T10:55:03;5.70;99.90
20380;DHT22;10349;48.666;8.948;2024-03-06T10:57:30;5.70;99.90
20380;DHT22;10349;48.666;8.948;2024-03-06T10:59:56;5.70;99.90
20380;DHT22;10349;48.666;8.948;2024-03-06T11:02:27;5.70;99.90
20380;DHT22;10349;48.666;8.948;2024-03-06T11:04:53;5.70;99.90
20380;DHT22;10349;48.666;8.948;2024-03-06T11:07:19;5.70;99.90
20380;DHT22;10349;48.666;8.948;2024-03-06T11:09:45;5.70;99.90
20380;DHT22;10349;48.666;8.948;2024-03-06T11:12:33;5.70;99.90
20380;DHT22;10349;48.666;8.948;2024-03-06T11:15:00;5.70;99.90
20380;DHT22;10349;48.666;8.948;2024-03-06T11:17:26;5.70;99.90
20380;DHT22;10349;48.666;8.948;2024-03-06T11:28:22;5.60;99.90
20380;DHT22;10349;48.666;8.948;2024-03-06T11:31:01;5.60;99.90
20380;DHT22;10349;48.666;8.948;2024-03-06T11:33:52;5.60;99.90
20380;DHT22;10349;48.666;8.948;2024-03-06T11:41:16;5.60;99.90
20380;DHT22;10349;48.666;8.948;2024-03-06T11:43:43;5.60;99.90
20380;DHT22;10349;48.666;8.948;2024-03-06T11:46:10;5.60;99.90
20380;DHT22;10349;48.666;8.948;2024-03-06T11:48:39;5.60;99.90
20380;DHT22;10349;48.666;8.948;2024-03-06T11:51:05;5.70;99.90
20380;DHT22;10349;48.666;8.948;2024-03-06T11:53:33;5.70;99.90
20380;DHT22;10349;48.666;8.948;2024-03-06T11:56:00;5.70;99.90
20380;DHT22;10349;48.666;8.948;2024-03-06T11:58:26;5.80;99.90
20380;DHT22;10349;48.666;8.948;2024-03-06T12:00:53;5.70;99.90
20380;DHT22;10349;48.666;8.948;2024-03-06T12:03:19;5.70;99.90
20380;DHT22;10349;48.666;8.948;2024-03-06T12:05:46;5.70;99.90
20380;DHT22;10349;48.666;8.948;2024-03-06T12:08:11;5.80;99.90
20380;DHT22;10349;48.666;8.948;2024-03-06T12:10:38;5.70;99.90
20380;DHT22;10349;48.666;8.948;2024-03-06T12:13:04;5.70;99.90
20380;DHT22;10349;48.666;8.948;2024-03-06T12:15:30;5.80;99.90
20380;DHT22;10349;48.666;8.948;2024-03-06T12:17:56;5.80;99.90
20380;DHT22;10349;48.666;8.948;2024-03-06T12:20:21;5.80;99.90
20380;DHT22;10349;48.666;8.948;2024-03-06T12:22:50;5.90;99.90
20380;DHT22;10349;48.666;8.948;2024-03-06T12:25:26;5.80;99.90
20380;DHT22;10349;48.666;8.948;2024-03-06T12:27:54;5.80;99.90
20380;DHT22;10349;48.666;8.948;2024-03-06T12:30:23;5.80;99.90
20380;DHT22;10349;48.666;8.948;2024-03-06T12:33:01;5.90;99.90
20380;DHT22;10349;48.666;8.948;2024-03-06T12:35:31;5.80;99.90
20380;DHT22;10349;48.666;8.948;2024-03-06T12:37:57;5.70;99.90
20380;DHT22;10349;48.666;8.948;2024-03-06T12:40:23;5.70;99.90
20380;DHT22;10349;48.666;8.948;2024-03-06T12:42:49;5.70;99.90
20380;DHT22;10349;48.666;8.948;2024-03-06T12:45:15;5.70;99.90
20380;DHT22;10349;48.666;8.948;2024-03-06T12:47:48;5.70;99.90
20380;DHT22;10349;48.666;8.948;2024-03-06T12:50:15;5.60;99.90
20380;DHT22;10349;48.666;8.948;2024-03-06T12:52:40;5.70;99.90
20380;DHT22;10349;48.666;8.948;2024-03-06T12:55:07;5.60;99.90
20380;DHT22;10349;48.666;8.948;2024-03-06T12:57:33;5.60;99.90
20380;DHT22;10349;48.666;8.948;2024-03-06T12:59:59;5.60;99.90
20380;DHT22;10349;48.666;8.948;2024-03-06T13:02:25;5.60;99.90
20380;DHT22;10349;48.666;8.948;2024-03-06T13:04:51;5.70;99.90
20380;DHT22;10349;48.666;8.948;2024-03-06T13:07:17;5.70;99.90
20380;DHT22;10349;48.666;8.948;2024-03-06T13:09:43;5.80;99.90
20380;DHT22;10349;48.666;8.948;2024-03-06T13:12:09;5.70;99.90
20380;DHT22;10349;48.666;8.948;2024-03-06T13:14:34;5.70;99.90
20380;DHT22;10349;48.666;8.948;2024-03-06T13:17:00;5.70;99.90
20380;DHT22;10349;48.666;8.948;2024-03-06T13:19:27;5.60;99.90
20380;DHT22;10349;48.666;8.948;2024-03-06T13:21:52;5.70;99.90
20380;DHT22;10349;48.666;8.948;2024-03-06T13:24:18;5.60;99.90
20380;DHT22;10349;48.666;8.948;2024-03-06T13:26:47;5.70;99.90
20380;DHT22;10349;48.666;8.948;2024-03-06T13:29:13;5.70;99.90
20380;DHT22;10349;48.666;8.948;2024-03-06T13:31:39;5.70;99.90
20380;DHT22;10349;48.666;8.948;2024-03-06T13:34:05;5.70;99.90
20380;DHT22;10349;48.666;8.948;2024-03-06T13:36:31;5.70;99.90
20380;DHT22;10349;48.666;8.948;2024-03-06T13:38:57;5.70;99.90
20380;DHT22;10349;48.666;8.948;2024-03-06T13:41:22;5.70;99.90
20380;DHT22;10349;48.666;8.948;2024-03-06T13:43:48;5.70;99.90
20380;DHT22;10349;48.666;8.948;2024-03-06T13:46:14;5.70;99.90
20380;DHT22;10349;48.666;8.948;2024-03-06T13:48:40;5.70;99.90
20380;DHT22;10349;48.666;8.948;2024-03-06T13:51:06;5.70;99.90
20380;DHT22;10349;48.666;8.948;2024-03-06T13:53:32;5.90;99.90
20380;DHT22;10349;48.666;8.948;2024-03-06T13:55:59;5.80;99.90
20380;DHT22;10349;48.666;8.948;2024-03-06T13:58:24;5.80;99.90
20380;DHT22;10349;48.666;8.948;2024-03-06T14:00:50;5.80;99.90
20380;DHT22;10349;48.666;8.948;2024-03-06T14:03:16;5.90;99.90
20380;DHT22;10349;48.666;8.948;2024-03-06T14:05:42;5.90;99.90
20380;DHT22;10349;48.666;8.948;2024-03-06T14:08:08;5.90;99.90
20380;DHT22;10349;48.666;8.948;2024-03-06T14:10:40;5.90;99.90
20380;DHT22;10349;48.666;8.948;2024-03-06T14:13:06;5.90;99.90
20380;DHT22;10349;48.666;8.948;2024-03-06T14:15:33;6.00;99.90
20380;DHT22;10349;48.666;8.948;2024-03-06T14:17:58;5.90;99.90
20380;DHT22;10349;48.666;8.948;2024-03-06T14:20:24;5.90;99.90
20380;DHT22;10349;48.666;8.948;2024-03-06T14:22:50;5.90;99.90
20380;DHT22;10349;48.666;8.948;2024-03-06T14:25:16;5.90;99.90
20380;DHT22;10349;48.666;8.948;2024-03-06T14:27:43;5.90;99.90
20380;DHT22;10349;48.666;8.948;2024-03-06T14:30:09;5.90;99.90
20380;DHT22;10349;48.666;8.948;2024-03-06T14:32:38;5.90;99.90
20380;DHT22;10349;48.666;8.948;2024-03-06T14:35:04;5.90;99.90
20380;DHT22;10349;48.666;8.948;2024-03-06T14:37:30;5.90;99.90
20380;DHT22;10349;48.666;8.948;2024-03-06T14:39:56;5.90;99.90
20380;DHT22;10349;48.666;8.948;2024-03-06T14:42:22;5.90;99.90
20380;DHT22;10349;48.666;8.948;2024-03-06T14:44:49;5.90;99.90
20380;DHT22;10349;48.666;8.948;2024-03-06T14:47:14;5.90;99.90
20380;DHT22;10349;48.666;8.948;2024-03-06T14:49:43;5.90;99.90
20380;DHT22;10349;48.666;8.948;2024-03-06T14:52:11;5.90;99.90
20380;DHT22;10349;48.666;8.948;2024-03-06T14:54:38;5.90;99.90
20380;DHT22;10349;48.666;8.948;2024-03-06T14:57:04;5.90;99.90
20380;DHT22;10349;48.666;8.948;2024-03-06T14:59:31;5.90;99.90
20380;DHT22;10349;48.666;8.948;2024-03-06T15:01:56;5.90;99.90
20380;DHT22;10349;48.666;8.948;2024-03-06T15:04:22;5.90;99.90
20380;DHT22;10349;48.666;8.948;2024-03-06T15:06:48;5.90;99.90
20380;DHT22;10349;48.666;8.948;2024-03-06T15:09:13;5.90;99.90
20380;DHT22;10349;48.666;8.948;2024-03-06T15:11:41;5.80;99.90
20380;DHT22;10349;48.666;8.948;2024-03-06T15:14:07;5.80;99.90
20380;DHT22;10349;48.666;8.948;2024-03-06T15:16:34;5.80;99.90
20380;DHT22;10349;48.666;8.948;2024-03-06T15:19:00;5.90;99.90
20380;DHT22;10349;48.666;8.948;2024-03-06T15:21:29;5.90;99.90
20380;DHT22;10349;48.666;8.948;2024-03-06T15:23:56;5.90;99.90
20380;DHT22;10349;48.666;8.948;2024-03-06T15:26:22;6.00;99.90
20380;DHT22;10349;48.666;8.948;2024-03-06T15:28:47;6.00;99.90
20380;DHT22;10349;48.666;8.948;2024-03-06T15:31:13;6.00;99.90
20380;DHT22;10349;48.666;8.948;2024-03-06T15:33:38;6.00;99.90
20380;DHT22;10349;48.666;8.948;2024-03-06T15:36:05;6.00;99.90
20380;DHT22;10349;48.666;8.948;2024-03-06T15:38:30;6.00;99.90
20380;DHT22;10349;48.666;8.948;2024-03-06T15:40:57;6.00;99.90
20380;DHT22;10349;48.666;8.948;2024-03-06T15:43:23;6.00;99.90
20380;DHT22;10349;48.666;8.948;2024-03-06T15:45:49;6.00;99.90
20380;DHT22;10349;48.666;8.948;2024-03-06T15:48:14;5.90;99.90
20380;DHT22;10349;48.666;8.948;2024-03-06T15:50:44;5.90;99.90
20380;DHT22;10349;48.666;8.948;2024-03-06T15:53:09;5.90;99.90